Time;durP1;ratioP1;P1;durP2;ratioP2;P2;SDS_P1;SDS_P2;PMS_P1;PMS_P2;Temp;Humidity;BMP_temperature;BMP_pressure;BME280_temperature;BME280_humidity;BME280_pressure;Samples;Min_cycle;Max_cycle;Signal;HPM_P1;HPM_P2
2022/11/26 00:02:27;;;;;;;10.45;3.50;;;5.00;99.90;;;5.04;100.00;101237.47;5042467;28;20314;-80
2022/11/26 00:04:56;;;;;;;13.23;4.25;;;5.00;99.90;;;5.67;100.00;101288.31;5021716;28;20230;-80
2022/11/26 00:07:27;;;;;;;9.63;3.28;;;5.50;99.90;;;5.65;100.00;101283.81;5043141;28;20250;-78
2022/11/26 00:09:57;;;;;;;8.13;2.75;;;5.70;99.90;;;5.44;100.00;101266.34;5021690;28;20310;-80
2022/11/26 00:12:30;;;;;;;11.50;3.85;;;5.50;99.90;;;5.28;100.00;101260.38;5023995;28;20235;-80
2022/11/26 00:15:08;;;;;;;10.15;3.35;;;5.50;99.90;;;5.28;100.00;101277.00;5041411;28;20244;-80
2022/11/26 00:17:35;;;;;;;9.32;3.08;;;5.40;99.90;;;4.95;100.00;101252.78;5028820;28;20318;-80
2022/11/26 00:20:02;;;;;;;12.63;4.32;;;5.10;99.90;;;4.89;100.00;101259.47;5047415;28;20314;-80
2022/11/26 00:22:40;;;;;;;10.10;3.25;;;5.00;99.90;;;4.85;100.00;101263.69;5027435;28;20226;-80
2022/11/26 00:25:26;;;;;;;8.75;2.85;;;4.90;99.90;;;4.94;100.00;101290.31;5027363;28;20239;-80
2022/11/26 00:27:56;;;;;;;11.52;3.60;;;5.00;99.90;;;4.96;100.00;101295.63;5024428;28;20244;-80
2022/11/26 00:30:26;;;;;;;12.65;4.07;;;5.00;99.90;;;4.89;100.00;101286.59;5024862;28;20314;-80
2022/11/26 00:32:54;;;;;;;10.50;3.45;;;5.00;99.90;;;4.70;100.00;101271.75;5041541;28;20223;-79
2022/11/26 00:35:22;;;;;;;11.40;3.67;;;4.90;99.90;;;4.66;100.00;101280.28;5042998;28;20257;-79
2022/11/26 00:37:57;;;;;;;12.23;4.03;;;4.80;99.90;;;4.76;100.00;101294.72;5044314;28;20254;-79
2022/11/26 00:40:30;;;;;;;11.13;3.55;;;4.80;99.90;;;4.88;100.00;101303.13;5041246;28;20253;-79
2022/11/26 00:42:57;;;;;;;9.68;3.17;;;4.90;99.90;;;4.81;100.00;101299.34;5024342;28;20337;-77
2022/11/26 00:45:29;;;;;;;11.15;3.63;;;4.90;99.90;;;4.98;100.00;101326.31;5037457;28;20241;-79
2022/11/26 00:47:57;;;;;;;7.22;2.38;;;4.90;99.90;;;4.74;100.00;101307.75;5050882;28;20245;-79
2022/11/26 00:50:26;;;;;;;10.15;3.22;;;4.90;99.90;;;4.72;100.00;101321.59;5044991;28;20255;-79
2022/11/26 00:52:55;;;;;;;12.10;3.88;;;4.80;99.90;;;4.70;100.00;101331.13;5018907;28;20744;-79
2022/11/26 00:55:41;;;;;;;9.45;3.38;;;4.80;99.90;;;4.74;100.00;101333.06;5045125;28;20227;-79
2022/11/26 00:58:23;;;;;;;7.60;2.58;;;4.80;99.90;;;4.95;100.00;101348.88;5020540;28;20695;-79
2022/11/26 01:00:52;;;;;;;9.55;3.10;;;4.90;99.90;;;5.01;100.00;101349.16;5046273;28;20234;-78
2022/11/26 01:03:20;;;;;;;9.85;3.25;;;5.00;99.90;;;4.74;100.00;101331.34;5033537;28;20227;-79
2022/11/26 01:05:52;;;;;;;9.77;3.15;;;4.90;99.90;;;4.86;100.00;101345.81;5042037;28;20218;-79
2022/11/26 01:08:35;;;;;;;13.45;4.13;;;5.00;99.90;;;4.67;100.00;101330.97;5038005;28;20272;-77
2022/11/26 01:11:04;;;;;;;11.25;3.67;;;4.90;99.90;;;4.50;100.00;101335.41;5038778;28;20235;-79
2022/11/26 01:13:32;;;;;;;11.43;3.70;;;4.60;99.90;;;4.36;100.00;101331.25;5041551;28;20693;-78
2022/11/26 01:16:00;;;;;;;10.20;3.30;;;4.50;99.90;;;4.30;100.00;101324.00;5044494;28;20738;-78
2022/11/26 01:18:33;;;;;;;11.75;4.07;;;4.40;99.90;;;4.56;100.00;101356.66;5025108;28;20245;-79
2022/11/26 01:21:00;;;;;;;8.63;2.75;;;5.00;99.90;;;4.24;100.00;101330.66;5054783;28;20233;-79
2022/11/26 01:23:27;;;;;;;8.57;2.75;;;4.40;99.90;;;4.21;100.00;101336.63;5044451;28;20230;-79
2022/11/26 01:25:55;;;;;;;19.00;5.13;;;4.70;99.90;;;4.28;100.00;101354.44;5051261;28;20242;-80
2022/11/26 01:28:22;;;;;;;10.32;3.30;;;4.40;99.90;;;4.12;100.00;101338.81;5046500;28;20456;-79
2022/11/26 01:30:49;;;;;;;10.68;3.35;;;4.30;99.90;;;4.12;100.00;101349.28;5051260;28;20310;-79
2022/11/26 01:33:16;;;;;;;8.27;2.75;;;4.20;99.90;;;4.23;100.00;101360.28;5028121;28;20309;-78
2022/11/26 01:35:43;;;;;;;11.32;3.58;;;4.50;99.90;;;4.14;100.00;101353.75;5050878;28;20226;-79
2022/11/26 01:38:14;;;;;;;11.48;4.90;;;4.40;99.90;;;4.22;100.00;101369.84;5048322;28;20320;-79
2022/11/26 01:40:55;;;;;;;12.65;3.97;;;4.30;99.90;;;4.30;100.00;101380.69;5028699;28;20225;-80
2022/11/26 01:43:31;;;;;;;11.48;3.63;;;4.60;99.90;;;4.20;100.00;101381.06;5041260;28;20219;-79
2022/11/26 01:45:58;;;;;;;10.02;3.17;;;4.30;99.90;;;4.27;100.00;101394.53;5025630;28;20230;-79
2022/11/26 01:48:33;;;;;;;11.93;3.65;;;4.40;99.90;;;4.22;100.00;101396.03;5027426;28;20272;-79
2022/11/26 01:51:09;;;;;;;10.55;3.75;;;4.30;99.90;;;4.46;100.00;101419.91;5048858;28;20389;-79
2022/11/26 01:53:59;;;;;;;8.05;2.65;;;4.50;99.90;;;4.41;100.00;101426.66;5051033;28;20230;-79
2022/11/26 01:56:40;;;;;;;9.82;3.10;;;4.50;99.90;;;4.40;100.00;101423.13;5027311;28;20318;-79
2022/11/26 01:59:25;;;;;;;11.25;3.55;;;4.50;99.90;;;4.37;100.00;101420.34;5017967;28;20288;-79
2022/11/26 02:01:56;;;;;;;10.20;3.40;;;4.60;99.90;;;4.35;100.00;101419.38;5045822;28;20237;-79
2022/11/26 02:04:34;;;;;;;10.15;3.30;;;4.40;99.90;;;4.24;100.00;101414.44;5017895;28;20249;-79
2022/11/26 02:07:02;;;;;;;11.32;3.67;;;4.40;99.90;;;4.36;100.00;101422.91;5035930;28;20234;-79
2022/11/26 02:09:30;;;;;;;11.27;3.85;;;4.40;99.90;;;4.39;100.00;101430.91;5047285;28;20287;-79
2022/11/26 02:11:57;;;;;;;8.40;2.85;;;4.70;99.90;;;4.31;100.00;101417.44;5024246;28;20257;-79
2022/11/26 02:14:34;;;;;;;8.77;2.95;;;4.40;99.90;;;4.42;100.00;101428.44;5048062;28;20250;-79
2022/11/26 02:17:13;;;;;;;13.07;4.10;;;4.40;99.90;;;4.38;100.00;101421.25;5043527;28;20241;-79
2022/11/26 02:20:04;;;;;;;8.20;2.70;;;4.50;99.90;;;4.42;100.00;101423.19;5043861;28;20250;-79
2022/11/26 02:23:07;;;;;;;9.70;3.17;;;4.50;99.90;;;4.18;100.00;101407.16;5053419;28;20246;-79
2022/11/26 02:25:37;;;;;;;12.73;4.05;;;4.40;99.90;;;4.34;100.00;101429.78;5045948;28;20678;-79
2022/11/26 02:28:47;;;;;;;8.00;2.78;;;4.70;99.90;;;4.32;100.00;101434.03;5026948;28;20231;-79
2022/11/26 02:31:45;;;;;;;6.47;2.33;;;4.40;99.90;;;4.17;100.00;101414.13;5022513;28;20305;-78
2022/11/26 02:34:59;;;;;;;7.97;2.78;;;4.30;99.90;;;4.10;100.00;101419.88;5042195;28;20226;-79
2022/11/26 02:37:36;;;;;;;12.10;3.83;;;4.20;99.90;;;4.20;100.00;101433.44;5048354;28;20255;-79
2022/11/26 02:40:07;;;;;;;7.80;2.78;;;4.20;99.90;;;4.22;100.00;101435.31;5026600;28;20309;-79
2022/11/26 02:42:35;;;;;;;12.32;4.22;;;4.40;99.90;;;4.39;100.00;101452.75;5041032;28;20280;-80
2022/11/26 02:45:13;;;;;;;8.25;2.85;;;4.40;99.90;;;4.45;100.00;101449.53;5030725;28;20238;-79
2022/11/26 02:47:45;;;;;;;13.50;4.47;;;4.50;99.90;;;4.63;100.00;101471.41;5033222;28;20250;-79
2022/11/26 02:50:19;;;;;;;13.85;4.55;;;4.70;99.90;;;4.56;100.00;101460.56;5012239;28;20345;-79
2022/11/26 02:52:48;;;;;;;13.98;4.50;;;4.70;99.90;;;4.47;100.00;101461.00;5011887;28;20351;-79
2022/11/26 02:55:21;;;;;;;8.07;2.78;;;4.60;99.90;;;4.27;100.00;101449.53;5021964;28;20229;-79
2022/11/26 02:57:52;;;;;;;10.18;3.30;;;4.40;99.90;;;4.33;100.00;101459.41;5025122;28;20405;-80
2022/11/26 03:00:20;;;;;;;8.23;2.85;;;4.40;99.90;;;4.41;100.00;101469.44;5025486;28;20286;-79
2022/11/26 03:03:11;;;;;;;7.70;2.65;;;4.80;99.90;;;4.19;100.00;101458.72;5043645;28;20678;-79
2022/11/26 03:05:40;;;;;;;9.20;3.08;;;4.40;99.90;;;4.20;100.00;101468.38;5044223;28;20234;-78
2022/11/26 03:08:08;;;;;;;11.60;4.07;;;4.30;99.90;;;4.21;100.00;101464.94;5023788;28;20234;-79
2022/11/26 03:10:35;;;;;;;8.48;2.88;;;4.50;99.90;;;4.32;100.00;101475.94;5021961;28;20233;-78
2022/11/26 03:13:02;;;;;;;8.63;2.92;;;4.40;99.90;;;3.95;100.00;101452.22;5044975;28;20276;-79
2022/11/26 03:15:29;;;;;;;9.20;3.20;;;4.20;99.90;;;4.19;100.00;101471.81;5016662;28;20231;-79
2022/11/26 03:17:56;;;;;;;8.90;2.92;;;4.20;99.90;;;4.18;100.00;101470.91;5043840;28;20254;-79
2022/11/26 03:20:23;;;;;;;12.00;3.92;;;4.50;99.90;;;3.90;100.00;101451.06;5046002;28;20330;-79
2022/11/26 03:22:50;;;;;;;7.32;2.72;;;4.10;99.90;;;4.07;100.00;101466.84;5037661;28;20231;-79
2022/11/26 03:25:18;;;;;;;9.65;3.33;;;4.10;99.90;;;3.95;100.00;101454.84;5049049;28;20256;-79
2022/11/26 03:27:45;;;;;;;10.38;3.67;;;4.10;99.90;;;3.78;100.00;101448.69;5038533;28;20319;-79
2022/11/26 03:30:12;;;;;;;7.97;2.97;;;3.90;99.90;;;3.83;100.00;101453.34;5040269;28;20330;-78
2022/11/26 03:32:40;;;;;;;9.75;3.42;;;3.90;99.90;;;3.83;100.00;101455.97;5021868;28;20291;-78
2022/11/26 03:35:07;;;;;;;9.93;3.58;;;4.00;99.90;;;3.97;100.00;101463.66;5038638;28;20287;-78
2022/11/26 03:37:34;;;;;;;6.78;2.50;;;4.00;99.90;;;4.22;100.00;101476.28;5041675;28;20310;-79
2022/11/26 03:40:02;;;;;;;8.88;3.22;;;4.30;99.90;;;4.04;100.00;101474.53;5042282;28;20293;-78
2022/11/26 03:42:29;;;;;;;8.57;3.08;;;4.20;99.90;;;4.00;100.00;101464.72;5053081;28;20253;-77
2022/11/26 03:44:56;;;;;;;8.48;3.17;;;4.30;99.90;;;4.14;100.00;101478.53;5007040;28;20298;-79
2022/11/26 03:47:23;;;;;;;8.95;3.17;;;4.30;99.90;;;3.85;100.00;101469.13;5047974;28;20242;-79
2022/11/26 03:49:50;;;;;;;8.07;2.88;;;4.10;99.90;;;3.94;100.00;101472.25;5047739;28;20222;-79
2022/11/26 03:52:17;;;;;;;9.55;3.30;;;4.20;99.90;;;3.48;100.00;101445.34;5052633;28;20273;-78
2022/11/26 03:54:44;;;;;;;10.88;3.78;;;3.70;99.90;;;3.63;100.00;101460.97;5022602;28;20230;-78
2022/11/26 03:57:12;;;;;;;8.40;3.10;;;3.70;99.90;;;3.71;100.00;101463.16;5044570;28;20272;-78
2022/11/26 03:59:39;;;;;;;7.03;2.58;;;4.40;99.90;;;3.45;100.00;101437.34;5038873;28;20325;-79
2022/11/26 04:02:06;;;;;;;7.07;2.78;;;3.60;99.90;;;3.50;100.00;101455.09;5045735;28;20231;-78
2022/11/26 04:04:33;;;;;;;8.73;3.03;;;4.30;99.90;;;3.54;100.00;101461.38;5055145;28;20274;-79
2022/11/26 04:07:00;;;;;;;11.15;3.78;;;4.40;99.90;;;3.49;100.00;101460.22;5042462;28;20245;-79
2022/11/26 04:09:28;;;;;;;10.15;3.50;;;3.70;99.90;;;3.54;100.00;101453.53;5052264;28;20284;-79
2022/11/26 04:11:55;;;;;;;8.23;3.03;;;3.60;99.90;;;3.60;100.00;101460.81;5041326;28;20273;-79
2022/11/26 04:14:22;;;;;;;9.98;3.65;;;3.70;99.90;;;3.80;100.00;101474.13;5043693;28;20226;-77
2022/11/26 04:16:49;;;;;;;9.10;3.10;;;3.80;99.90;;;3.80;100.00;101474.13;5050931;28;20264;-79
2022/11/26 04:19:16;;;;;;;8.43;2.75;;;4.00;99.90;;;3.61;100.00;101468.72;5036724;28;20294;-78
2022/11/26 04:21:43;;;;;;;7.43;2.50;;;4.20;99.90;;;3.59;100.00;101464.25;5051862;28;20294;-77
2022/11/26 04:24:10;;;;;;;7.00;2.60;;;3.90;99.90;;;3.60;100.00;101476.50;5050561;28;20304;-78
2022/11/26 04:26:37;;;;;;;6.75;2.40;;;3.70;99.90;;;3.60;100.00;101474.78;5044036;28;20250;-79
2022/11/26 04:29:04;;;;;;;7.85;2.80;;;3.60;99.90;;;3.43;100.00;101466.03;5042474;28;20366;-78
2022/11/26 04:31:31;;;;;;;7.82;2.75;;;3.60;99.90;;;3.20;100.00;101456.94;5047644;28;20288;-78
2022/11/26 04:33:59;;;;;;;8.38;2.83;;;3.40;99.90;;;3.12;100.00;101460.84;5042265;28;20236;-81
2022/11/26 04:36:26;;;;;;;8.63;2.95;;;3.70;99.90;;;3.19;100.00;101464.69;5050752;28;20257;-80
2022/11/26 04:38:53;;;;;;;12.88;4.05;;;3.90;99.90;;;3.07;100.00;101461.41;5048195;28;20230;-79
2022/11/26 04:41:20;;;;;;;10.68;3.53;;;3.20;99.90;;;3.15;100.00;101481.03;5049720;28;20242;-81
2022/11/26 04:43:47;;;;;;;8.30;2.85;;;3.60;99.90;;;2.94;100.00;101464.16;5045751;28;20648;-79
2022/11/26 04:46:14;;;;;;;9.80;3.40;;;3.90;99.90;;;2.87;100.00;101465.53;5043615;28;20253;-80
2022/11/26 04:48:42;;;;;;;16.55;5.53;;;3.90;99.90;;;3.03;100.00;101486.47;5036441;28;20266;-80
2022/11/26 04:51:09;;;;;;;10.05;3.53;;;3.40;99.90;;;2.76;100.00;101461.41;5036419;28;20238;-80
2022/11/26 04:53:36;;;;;;;8.40;3.17;;;3.40;99.90;;;3.00;100.00;101488.00;5037922;28;20238;-80
2022/11/26 04:56:03;;;;;;;12.65;4.20;;;3.20;99.90;;;2.81;100.00;101479.16;5036017;28;20587;-81
2022/11/26 04:58:30;;;;;;;7.72;2.65;;;3.00;99.90;;;2.81;100.00;101486.09;5038046;28;20290;-81
2022/11/26 05:00:57;;;;;;;16.38;5.38;;;3.10;99.90;;;2.51;100.00;101459.09;5038310;28;20284;-79
2022/11/26 05:03:25;;;;;;;11.35;3.70;;;2.70;99.90;;;2.61;100.00;101478.81;5036061;28;20284;-79
2022/11/26 05:05:52;;;;;;;9.18;2.92;;;2.90;99.90;;;2.30;100.00;101453.53;5050245;28;20227;-79
2022/11/26 05:08:19;;;;;;;8.45;2.95;;;2.50;99.90;;;2.13;100.00;101454.25;5050151;28;20226;-79
2022/11/26 05:10:51;;;;;;;12.65;4.20;;;2.30;99.90;;;2.23;100.00;101467.94;5057181;28;20307;-78
2022/11/26 05:13:19;;;;;;;7.63;2.50;;;2.40;99.90;;;2.19;100.00;101473.78;5046984;28;20226;-79
2022/11/26 05:15:46;;;;;;;10.48;3.53;;;2.20;99.90;;;2.03;100.00;101468.47;5043260;28;20225;-80
2022/11/26 05:18:13;;;;;;;12.75;4.15;;;2.20;99.90;;;2.22;100.00;101487.00;5038356;28;20337;-79
2022/11/26 05:20:40;;;;;;;10.98;3.92;;;2.30;99.90;;;2.32;100.00;101500.59;5045582;28;20309;-79
2022/11/26 05:23:07;;;;;;;9.73;3.40;;;2.50;99.90;;;2.53;100.00;101518.41;5042234;28;20260;-78
2022/11/26 05:25:34;;;;;;;11.35;3.75;;;2.60;99.90;;;2.44;100.00;101519.59;5039766;28;20265;-81
2022/11/26 05:28:02;;;;;;;13.77;4.85;;;2.50;99.90;;;2.45;100.00;101524.91;5026265;28;20265;-79
2022/11/26 05:30:29;;;;;;;11.20;3.80;;;2.50;99.90;;;2.85;100.00;101561.22;5040889;28;20234;-79
2022/11/26 05:32:56;;;;;;;9.00;3.15;;;2.90;99.90;;;2.82;100.00;101563.63;5047119;28;20338;-78
2022/11/26 05:35:23;;;;;;;9.73;3.38;;;2.90;99.90;;;2.76;100.00;101566.78;5042871;28;20223;-80
2022/11/26 05:37:50;;;;;;;9.68;3.35;;;3.00;99.90;;;2.73;100.00;101561.41;5043769;28;20649;-81
2022/11/26 05:40:17;;;;;;;10.23;3.53;;;2.80;99.90;;;2.80;100.00;101573.09;5016550;28;20244;-80
2022/11/26 05:42:44;;;;;;;9.15;3.22;;;3.00;99.90;;;2.79;100.00;101574.81;5045191;28;20246;-80
2022/11/26 05:45:11;;;;;;;8.70;3.15;;;2.90;99.90;;;2.73;100.00;101577.06;5047007;28;20230;-80
2022/11/26 05:47:38;;;;;;;12.80;4.28;;;2.90;99.90;;;2.71;100.00;101576.06;5045304;28;20227;-80
2022/11/26 05:50:06;;;;;;;9.65;3.22;;;3.00;99.90;;;2.70;100.00;101582.13;5039751;28;20298;-79
2022/11/26 05:52:34;;;;;;;10.60;3.55;;;2.80;99.90;;;2.84;100.00;101585.53;5028185;28;20230;-79
2022/11/26 05:55:01;;;;;;;11.02;3.85;;;2.90;99.90;;;2.70;100.00;101576.88;5045006;28;20226;-78
2022/11/26 05:57:28;;;;;;;10.05;3.45;;;2.80;99.90;;;2.55;100.00;101571.63;5041875;28;20302;-80
2022/11/26 05:59:55;;;;;;;10.57;3.40;;;2.80;99.90;;;2.49;100.00;101572.97;5044621;28;20234;-79
2022/11/26 06:02:22;;;;;;;11.10;3.75;;;2.60;99.90;;;2.52;100.00;101579.28;5043414;28;20222;-79
2022/11/26 06:04:49;;;;;;;8.85;3.22;;;2.80;99.90;;;2.39;100.00;101581.06;5056150;28;20224;-82
2022/11/26 06:07:16;;;;;;;8.48;2.97;;;3.30;99.90;;;2.31;100.00;101583.22;5046621;28;20257;-81
2022/11/26 06:09:43;;;;;;;9.50;3.13;;;2.40;99.90;;;2.40;100.00;101594.22;5055934;28;20235;-80
2022/11/26 06:12:10;;;;;;;8.07;2.83;;;2.60;99.90;;;2.39;100.00;101600.25;5050051;28;20273;-80
2022/11/26 06:14:37;;;;;;;6.28;2.35;;;2.70;99.90;;;2.40;100.00;101602.03;5037555;28;20238;-79
2022/11/26 06:17:10;;;;;;;8.82;2.88;;;2.50;99.90;;;2.40;100.00;101609.88;5033652;28;20230;-79
2022/11/26 06:19:37;;;;;;;7.82;2.67;;;3.10;99.90;;;2.31;100.00;101593.66;5061600;28;20283;-80
2022/11/26 06:22:05;;;;;;;11.15;3.80;;;2.60;99.90;;;2.31;100.00;101596.28;5050146;28;20238;-80
2022/11/26 06:24:32;;;;;;;11.77;3.80;;;2.60;99.90;;;2.10;100.00;101575.00;5047655;28;20245;-79
2022/11/26 06:26:59;;;;;;;10.00;3.40;;;2.30;99.90;;;2.11;100.00;101584.63;5039710;28;20230;-80
2022/11/26 06:29:26;;;;;;;9.70;3.15;;;2.20;99.90;;;1.90;100.00;101570.25;5049891;28;20254;-79
2022/11/26 06:31:54;;;;;;;10.27;3.47;;;2.20;99.90;;;1.83;100.00;101570.69;5044185;28;20313;-79
2022/11/26 06:34:22;;;;;;;11.15;3.55;;;2.00;99.90;;;1.56;100.00;101560.34;5045097;28;20363;-79
2022/11/26 06:36:49;;;;;;;12.98;4.35;;;2.70;99.90;;;1.51;100.00;101561.75;5027948;28;20267;-79
2022/11/26 06:39:16;;;;;;;11.25;3.72;;;1.70;99.90;;;1.67;100.00;101584.47;5043952;28;20782;-79
2022/11/26 06:41:43;;;;;;;8.73;3.00;;;1.80;99.90;;;1.57;100.00;101571.69;5042408;28;20217;-80
2022/11/26 06:44:10;;;;;;;8.05;2.70;;;1.80;99.90;;;1.75;100.00;101592.78;5047651;28;20234;-79
2022/11/26 06:46:37;;;;;;;6.07;2.53;;;2.20;99.90;;;1.91;100.00;101605.97;5041416;28;20313;-79
2022/11/26 06:49:05;;;;;;;8.15;2.78;;;2.00;99.90;;;2.04;100.00;101621.59;5050160;28;20283;-79
2022/11/26 06:51:33;;;;;;;8.05;2.92;;;2.10;99.90;;;2.07;100.00;101627.00;5048896;28;20287;-80
2022/11/26 06:54:00;;;;;;;8.98;3.10;;;2.20;99.90;;;2.04;100.00;101625.91;5058115;28;20229;-77
2022/11/26 06:56:27;;;;;;;13.98;4.50;;;2.20;99.90;;;2.02;100.00;101627.50;5024351;28;20222;-78
2022/11/26 06:58:55;;;;;;;14.43;4.45;;;2.10;99.90;;;1.98;100.00;101626.44;5049446;28;20262;-79
2022/11/26 07:01:25;;;;;;;18.02;5.88;;;2.10;99.90;;;1.97;100.00;101626.31;5043461;28;20234;-78
2022/11/26 07:03:53;;;;;;;10.63;3.45;;;2.10;99.90;;;1.94;100.00;101627.03;5040832;28;20222;-80
2022/11/26 07:06:28;;;;;;;10.30;3.35;;;2.10;99.90;;;1.66;100.00;101615.69;5028827;28;20223;-80
2022/11/26 07:08:58;;;;;;;13.98;4.22;;;1.90;99.90;;;2.07;100.00;101655.69;5034893;28;20331;-78
2022/11/26 07:11:25;;;;;;;9.55;3.10;;;2.90;99.90;;;2.20;100.00;101665.19;5024838;28;20257;-79
2022/11/26 07:13:56;;;;;;;14.65;4.70;;;2.60;99.90;;;2.48;100.00;101675.63;5046505;28;20217;-79
2022/11/26 07:16:24;;;;;;;11.52;3.67;;;2.60;99.90;;;2.51;100.00;101676.72;5040316;28;20218;-79
2022/11/26 07:18:54;;;;;;;12.88;4.15;;;2.60;99.90;;;2.42;100.00;101665.69;5042702;28;20222;-79
2022/11/26 07:21:28;;;;;;;9.10;3.05;;;2.60;99.90;;;2.40;100.00;101679.47;5049771;28;20268;-79
2022/11/26 07:23:55;;;;;;;9.55;2.97;;;2.50;99.90;;;2.24;100.00;101672.41;5025138;28;20229;-78
2022/11/26 07:26:23;;;;;;;15.85;4.97;;;2.50;99.90;;;2.04;100.00;101665.03;5042890;28;20309;-79
2022/11/26 07:28:53;;;;;;;20.77;6.38;;;2.30;99.90;;;1.89;100.00;101665.88;5040367;28;20226;-78
2022/11/26 07:31:21;;;;;;;9.30;3.20;;;2.10;99.90;;;1.98;100.00;101665.56;5040949;28;20246;-80
2022/11/26 07:33:50;;;;;;;9.30;3.33;;;2.10;99.90;;;2.01;100.00;101672.69;5049431;28;20260;-81
2022/11/26 07:36:24;;;;;;;11.95;3.78;;;2.10;99.90;;;1.99;100.00;101669.06;5048395;28;20222;-81
2022/11/26 07:39:00;;;;;;;13.48;4.13;;;2.30;99.90;;;1.91;100.00;101669.50;5048133;28;20300;-82
2022/11/26 07:41:29;;;;;;;11.45;3.53;;;2.20;99.90;;;1.88;100.00;101671.91;5049144;28;20586;-82
2022/11/26 07:43:56;;;;;;;11.27;3.47;;;1.90;99.90;;;1.92;100.00;101681.72;5059453;28;20222;-82
2022/11/26 07:46:25;;;;;;;11.30;3.58;;;2.00;99.90;;;1.96;100.00;101685.44;5049217;28;20254;-81
2022/11/26 07:48:54;;;;;;;13.02;4.00;;;2.00;99.90;;;1.99;100.00;101687.34;5065031;28;20221;-81
2022/11/26 07:51:28;;;;;;;10.77;3.35;;;2.10;99.90;;;2.07;100.00;101689.63;5039064;28;20227;-81
2022/11/26 07:53:58;;;;;;;9.32;3.03;;;2.20;99.90;;;2.07;100.00;101694.84;5050202;28;20344;-82
2022/11/26 07:56:26;;;;;;;8.73;2.83;;;2.20;99.90;;;2.12;100.00;101701.25;5038342;28;20230;-82
2022/11/26 07:58:54;;;;;;;13.05;4.05;;;2.60;99.90;;;2.12;100.00;101710.78;5020618;28;20264;-82
2022/11/26 08:01:25;;;;;;;10.32;3.30;;;2.80;99.90;;;2.21;100.00;101717.47;5041105;28;20230;-82
2022/11/26 08:03:53;;;;;;;12.25;3.70;;;2.40;99.90;;;2.25;100.00;101722.09;5043348;28;20238;-82
2022/11/26 08:06:25;;;;;;;10.65;3.30;;;3.20;99.90;;;2.31;100.00;101733.72;5031087;28;20288;-81
2022/11/26 08:08:52;;;;;;;14.20;4.20;;;3.00;99.90;;;2.28;100.00;101725.69;5057055;28;20257;-82
2022/11/26 08:11:23;;;;;;;12.20;3.83;;;2.40;99.90;;;2.33;100.00;101738.22;5046772;28;20250;-81
2022/11/26 08:13:58;;;;;;;12.18;3.63;;;2.60;99.90;;;2.36;100.00;101733.19;5052396;28;20267;-82
2022/11/26 08:16:25;;;;;;;10.73;3.40;;;2.50;99.90;;;2.39;100.00;101751.66;5051812;28;20306;-83
2022/11/26 08:18:57;;;;;;;11.80;3.60;;;2.50;99.90;;;2.42;100.00;101754.47;5027415;28;20280;-81
2022/11/26 08:21:25;;;;;;;10.77;3.33;;;2.70;99.90;;;2.42;100.00;101759.69;5049303;28;20653;-82
2022/11/26 08:23:53;;;;;;;11.73;3.78;;;2.70;99.90;;;2.49;100.00;101767.09;5055458;28;20237;-82
2022/11/26 08:26:21;;;;;;;13.18;3.92;;;2.60;99.90;;;2.59;100.00;101779.03;5025918;28;20329;-81
2022/11/26 08:28:59;;;;;;;20.45;5.82;;;2.90;99.90;;;2.71;100.00;101784.16;5053782;28;20317;-82
2022/11/26 08:31:27;;;;;;;13.63;3.90;;;2.80;99.90;;;2.68;100.00;101784.84;5049628;28;20226;-84
2022/11/26 08:33:59;;;;;;;16.63;4.65;;;2.80;99.90;;;2.70;100.00;101790.16;5044228;28;20223;-82
2022/11/26 08:36:28;;;;;;;12.35;3.78;;;2.80;99.90;;;2.93;100.00;101804.66;5045636;28;20227;-81
2022/11/26 08:38:56;;;;;;;16.08;4.57;;;3.30;99.90;;;3.02;100.00;101807.84;5055997;28;20230;-81
2022/11/26 08:41:23;;;;;;;12.27;3.67;;;3.10;99.90;;;3.11;100.00;101824.06;5064115;28;20235;-82
2022/11/26 08:43:50;;;;;;;15.80;4.32;;;3.10;99.90;;;3.03;100.00;101810.53;5046421;28;20283;-82
2022/11/26 08:46:32;;;;;;;13.23;3.90;;;3.90;99.90;;;3.02;100.00;101811.34;5050308;28;20254;-81
2022/11/26 08:49:00;;;;;;;12.68;3.63;;;3.20;99.90;;;3.15;100.00;101823.44;5051275;28;20287;-82
2022/11/26 08:51:27;;;;;;;13.70;3.97;;;4.30;99.90;;;3.41;100.00;101846.84;5049137;28;20230;-82
2022/11/26 08:53:54;;;;;;;15.13;4.50;;;3.50;99.90;;;3.33;100.00;101835.03;5039905;28;20280;-82
2022/11/26 08:56:21;;;;;;;12.27;3.72;;;3.40;99.90;;;3.49;100.00;101853.44;5026424;28;20270;-82
2022/11/26 08:58:50;;;;;;;17.73;5.07;;;3.60;99.90;;;3.61;100.00;101857.59;5040450;28;20222;-82
2022/11/26 09:01:23;;;;;;;9.75;3.05;;;4.00;99.90;;;3.67;100.00;101860.56;5040430;28;20256;-82
2022/11/26 09:03:53;;;;;;;11.23;3.35;;;3.80;99.90;;;3.81;100.00;101880.59;5026078;28;20230;-82
2022/11/26 09:06:22;;;;;;;11.88;3.75;;;4.60;99.90;;;3.81;100.00;101872.75;5062687;28;20642;-80
2022/11/26 09:11:39;;;;;;;9.82;3.13;;;3.90;99.90;;;3.90;100.00;101885.47;5048973;28;20222;-81
2022/11/26 09:14:06;;;;;;;11.63;3.78;;;4.00;99.90;;;4.01;100.00;101892.28;5044204;28;20234;-82
2022/11/26 09:16:33;;;;;;;12.95;3.88;;;4.00;99.90;;;4.04;100.00;101898.59;5043981;28;20226;-82
2022/11/26 09:19:03;;;;;;;10.40;3.38;;;4.40;99.90;;;4.14;100.00;101895.69;5044442;28;20235;-81
2022/11/26 09:21:35;;;;;;;10.27;3.20;;;5.10;99.90;;;4.27;100.00;101902.56;5041710;28;20222;-81
2022/11/26 09:24:03;;;;;;;13.38;4.28;;;4.30;99.90;;;4.43;100.00;101912.19;5042158;28;20230;-82
2022/11/26 09:26:31;;;;;;;16.73;4.97;;;4.40;99.90;;;4.48;100.00;101914.25;5043776;28;20258;-81
2022/11/26 09:28:59;;;;;;;18.33;5.07;;;4.50;99.90;;;4.52;100.00;101910.09;5040504;28;20230;-82
2022/11/26 09:31:27;;;;;;;19.88;5.30;;;3.90;99.90;;;4.67;100.00;101924.06;5043567;28;20230;-82
2022/11/26 09:33:58;;;;;;;13.35;4.53;;;4.60;99.90;;;4.76;100.00;101937.69;5045110;28;20536;-82
2022/11/26 09:36:26;;;;;;;12.32;4.18;;;4.80;99.90;;;4.80;100.00;101934.41;5051751;28;20264;-82
2022/11/26 09:38:58;;;;;;;13.50;3.90;;;4.80;99.90;;;5.01;100.00;101958.31;5047928;28;20226;-81
2022/11/26 09:41:59;;;;;;;18.80;5.28;;;5.00;99.90;;;5.05;100.00;101952.41;5039811;28;20226;-81
2022/11/26 09:44:50;;;;;;;10.13;2.95;;;5.10;99.90;;;5.13;100.00;101956.34;5029155;28;20683;-80
2022/11/26 09:47:22;;;;;;;9.65;2.92;;;5.20;99.90;;;5.11;100.00;101947.50;5044502;28;20222;-80
2022/11/26 09:50:17;;;;;;;9.43;2.78;;;5.10;99.90;;;5.18;100.00;101951.38;5025716;28;20691;-82
2022/11/26 09:52:55;;;;;;;8.98;2.85;;;5.20;99.90;;;5.28;100.00;101950.19;5024198;28;20313;-82
2022/11/26 09:55:40;;;;;;;16.27;4.90;;;5.30;99.90;;;5.26;100.00;101947.47;5038933;28;20231;-82
2022/11/26 09:58:24;;;;;;;15.55;4.68;;;5.30;99.90;;;5.42;100.00;101959.69;5025785;28;20251;-83
2022/11/26 10:01:03;;;;;;;11.25;3.58;;;5.50;99.90;;;5.48;100.00;101967.91;5025543;28;20233;-80
2022/11/26 10:03:36;;;;;;;12.52;3.85;;;5.50;99.90;;;5.51;100.00;101970.69;5020800;28;20241;-82
2022/11/26 10:06:57;;;;;;;16.17;4.00;;;5.50;99.90;;;5.56;100.00;101970.94;5023921;28;20254;-84
2022/11/26 10:09:55;;;;;;;11.20;3.28;;;5.60;99.90;;;5.62;100.00;101980.03;5007931;28;20231;-84
2022/11/26 10:13:00;;;;;;;13.27;4.13;;;5.70;99.90;;;5.67;100.00;101977.66;5023407;28;20304;-81
2022/11/26 10:16:21;;;;;;;9.35;2.90;;;5.70;99.90;;;5.76;100.00;101975.53;5026534;28;20225;-83
2022/11/26 10:19:09;;;;;;;19.30;5.50;;;5.80;99.90;;;5.91;100.00;101996.47;5038742;28;20312;-82
2022/11/26 10:21:40;;;;;;;10.23;3.33;;;5.90;99.90;;;5.94;100.00;101989.66;5021732;28;20273;-83
2022/11/26 10:24:35;;;;;;;13.63;4.18;;;6.00;99.90;;;6.03;100.00;101995.38;5028921;28;20695;-84
2022/11/26 10:27:12;;;;;;;19.63;5.82;;;6.10;99.90;;;6.16;100.00;101999.53;5022062;28;20264;-81
2022/11/26 10:29:50;;;;;;;14.35;4.53;;;6.20;99.90;;;6.16;100.00;101994.28;5013674;28;20413;-81
2022/11/26 10:32:38;;;;;;;12.90;3.83;;;6.20;99.90;;;6.16;100.00;101989.03;5014665;28;20237;-80
2022/11/26 10:35:05;;;;;;;14.88;4.68;;;6.20;99.90;;;6.32;100.00;101996.88;5011288;28;20329;-81
2022/11/26 10:37:33;;;;;;;17.67;5.35;;;6.30;99.90;;;6.54;100.00;102008.50;5011295;28;20276;-81